sensor_id;sensor_type;location;lat;lon;timestamp;pressure;altitude;pressure_sealevel;temperature;humidity
81162;BME280;70638;-33.792;151.032;2024-02-23T00:00:15;100116.99;;;32.78;58.80
81162;BME280;70638;-33.792;151.032;2024-02-23T00:02:45;100114.96;;;32.69;57.69
81162;BME280;70638;-33.792;151.032;2024-02-23T00:05:16;100114.11;;;32.74;60.41
81162;BME280;70638;-33.792;151.032;2024-02-23T00:07:46;100120.27;;;32.66;59.71
81162;BME280;70638;-33.792;151.032;2024-02-23T00:10:22;100113.81;;;32.69;60.77
81162;BME280;70638;-33.792;151.032;2024-02-23T00:12:50;100106.97;;;32.50;57.97
81162;BME280;70638;-33.792;151.032;2024-02-23T00:15:18;100108.94;;;32.54;59.82
81162;BME280;70638;-33.792;151.032;2024-02-23T00:17:48;100107.44;;;32.59;58.88
81162;BME280;70638;-33.792;151.032;2024-02-23T00:20:18;100108.63;;;32.54;61.21
81162;BME280;70638;-33.792;151.032;2024-02-23T00:22:49;100103.73;;;32.71;61.39
81162;BME280;70638;-33.792;151.032;2024-02-23T00:25:20;100101.45;;;32.67;60.79
81162;BME280;70638;-33.792;151.032;2024-02-23T00:27:49;100093.64;;;32.60;61.00
81162;BME280;70638;-33.792;151.032;2024-02-23T00:30:20;100096.83;;;32.43;64.13
81162;BME280;70638;-33.792;151.032;2024-02-23T00:32:50;100091.28;;;32.40;61.34
81162;BME280;70638;-33.792;151.032;2024-02-23T00:35:21;100089.77;;;32.39;64.84
81162;BME280;70638;-33.792;151.032;2024-02-23T00:37:54;100088.55;;;32.29;63.65
81162;BME280;70638;-33.792;151.032;2024-02-23T00:40:21;100086.57;;;32.34;59.03
81162;BME280;70638;-33.792;151.032;2024-02-23T00:42:51;100081.68;;;32.51;64.92
81162;BME280;70638;-33.792;151.032;2024-02-23T00:45:22;100080.17;;;32.66;61.38
81162;BME280;70638;-33.792;151.032;2024-02-23T00:47:52;100077.55;;;32.82;59.84
81162;BME280;70638;-33.792;151.032;2024-02-23T00:50:22;100080.59;;;33.13;61.36
81162;BME280;70638;-33.792;151.032;2024-02-23T00:52:53;100075.25;;;33.29;59.39
81162;BME280;70638;-33.792;151.032;2024-02-23T00:55:23;100069.47;;;33.32;57.61
81162;BME280;70638;-33.792;151.032;2024-02-23T00:57:53;100064.86;;;33.51;60.64
81162;BME280;70638;-33.792;151.032;2024-02-23T01:00:23;100063.41;;;33.50;63.02
81162;BME280;70638;-33.792;151.032;2024-02-23T01:02:57;100058.31;;;33.66;56.40
81162;BME280;70638;-33.792;151.032;2024-02-23T01:05:24;100053.75;;;33.96;57.41
81162;BME280;70638;-33.792;151.032;2024-02-23T01:07:54;100053.28;;;33.96;56.58
81162;BME280;70638;-33.792;151.032;2024-02-23T01:10:27;100050.05;;;33.99;56.71
81162;BME280;70638;-33.792;151.032;2024-02-23T01:12:55;100045.73;;;33.77;55.93
81162;BME280;70638;-33.792;151.032;2024-02-23T01:15:28;100047.66;;;33.70;59.84
81162;BME280;70638;-33.792;151.032;2024-02-23T01:17:58;100041.09;;;33.83;55.55
81162;BME280;70638;-33.792;151.032;2024-02-23T01:20:27;100035.84;;;34.08;57.06
81162;BME280;70638;-33.792;151.032;2024-02-23T01:22:58;100032.06;;;34.13;55.17
81162;BME280;70638;-33.792;151.032;2024-02-23T01:25:28;100032.69;;;34.22;58.04
81162;BME280;70638;-33.792;151.032;2024-02-23T01:27:58;100024.84;;;34.37;56.92
81162;BME280;70638;-33.792;151.032;2024-02-23T01:30:30;100019.98;;;34.44;57.46
81162;BME280;70638;-33.792;151.032;2024-02-23T01:32:59;100016.33;;;34.38;55.77
81162;BME280;70638;-33.792;151.032;2024-02-23T01:35:31;100014.78;;;34.29;52.10
81162;BME280;70638;-33.792;151.032;2024-02-23T01:38:00;100019.48;;;34.19;53.88
81162;BME280;70638;-33.792;151.032;2024-02-23T01:40:30;100014.28;;;34.35;52.92
81162;BME280;70638;-33.792;151.032;2024-02-23T01:43:01;100012.05;;;34.40;53.99
81162;BME280;70638;-33.792;151.032;2024-02-23T01:45:32;100007.82;;;34.32;54.66
81162;BME280;70638;-33.792;151.032;2024-02-23T01:48:02;100009.02;;;34.47;56.38
81162;BME280;70638;-33.792;151.032;2024-02-23T01:50:33;100003.75;;;34.55;54.59
81162;BME280;70638;-33.792;151.032;2024-02-23T01:53:03;100002.02;;;34.72;53.16
81162;BME280;70638;-33.792;151.032;2024-02-23T01:55:34;99995.61;;;34.85;56.39
81162;BME280;70638;-33.792;151.032;2024-02-23T01:58:05;99996.23;;;35.00;54.98
81162;BME280;70638;-33.792;151.032;2024-02-23T02:00:35;99994.45;;;35.19;48.55
81162;BME280;70638;-33.792;151.032;2024-02-23T02:03:05;99984.56;;;35.27;48.63
81162;BME280;70638;-33.792;151.032;2024-02-23T02:05:36;99983.74;;;35.27;47.44
81162;BME280;70638;-33.792;151.032;2024-02-23T02:08:06;99975.39;;;35.42;47.01
81162;BME280;70638;-33.792;151.032;2024-02-23T02:10:36;99974.86;;;35.51;50.33
81162;BME280;70638;-33.792;151.032;2024-02-23T02:13:07;99966.50;;;35.69;52.80
81162;BME280;70638;-33.792;151.032;2024-02-23T02:15:36;99960.33;;;35.64;44.53
81162;BME280;70638;-33.792;151.032;2024-02-23T02:18:06;99957.57;;;35.88;48.64
81162;BME280;70638;-33.792;151.032;2024-02-23T02:20:37;99960.50;;;35.64;46.25
81162;BME280;70638;-33.792;151.032;2024-02-23T02:23:09;99951.31;;;35.35;46.22
81162;BME280;70638;-33.792;151.032;2024-02-23T02:25:37;99954.45;;;35.26;46.62
81162;BME280;70638;-33.792;151.032;2024-02-23T02:28:08;99955.77;;;35.16;48.70
81162;BME280;70638;-33.792;151.032;2024-02-23T02:30:38;99953.94;;;35.08;49.58
81162;BME280;70638;-33.792;151.032;2024-02-23T02:33:08;99957.78;;;34.77;51.66
81162;BME280;70638;-33.792;151.032;2024-02-23T02:35:53;99953.08;;;34.84;48.33
81162;BME280;70638;-33.792;151.032;2024-02-23T02:38:10;99952.30;;;34.99;50.38
81162;BME280;70638;-33.792;151.032;2024-02-23T02:40:39;99951.00;;;35.04;48.90
81162;BME280;70638;-33.792;151.032;2024-02-23T02:43:11;99946.44;;;35.15;47.56
81162;BME280;70638;-33.792;151.032;2024-02-23T02:45:40;99945.78;;;35.31;46.64
81162;BME280;70638;-33.792;151.032;2024-02-23T02:48:11;99935.72;;;35.58;48.72
81162;BME280;70638;-33.792;151.032;2024-02-23T02:50:41;99935.39;;;35.61;46.14
81162;BME280;70638;-33.792;151.032;2024-02-23T02:53:11;99924.78;;;35.90;46.77
81162;BME280;70638;-33.792;151.032;2024-02-23T02:55:45;99922.63;;;36.11;44.72
81162;BME280;70638;-33.792;151.032;2024-02-23T02:58:12;99916.05;;;36.09;43.64
81162;BME280;70638;-33.792;151.032;2024-02-23T03:00:42;99912.72;;;36.26;47.59
81162;BME280;70638;-33.792;151.032;2024-02-23T03:03:13;99911.84;;;36.11;47.69
81162;BME280;70638;-33.792;151.032;2024-02-23T03:05:43;99904.66;;;36.11;43.25
81162;BME280;70638;-33.792;151.032;2024-02-23T03:08:16;99901.02;;;36.46;44.26
81162;BME280;70638;-33.792;151.032;2024-02-23T03:10:44;99896.52;;;36.57;44.47
81162;BME280;70638;-33.792;151.032;2024-02-23T03:13:14;99898.10;;;36.77;42.38
81162;BME280;70638;-33.792;151.032;2024-02-23T03:15:45;99900.50;;;36.78;41.93
81162;BME280;70638;-33.792;151.032;2024-02-23T03:18:17;99895.52;;;36.54;43.92
81162;BME280;70638;-33.792;151.032;2024-02-23T03:20:45;99889.77;;;36.19;42.96
81162;BME280;70638;-33.792;151.032;2024-02-23T03:23:16;99884.14;;;35.92;41.36
81162;BME280;70638;-33.792;151.032;2024-02-23T03:25:46;99884.84;;;35.68;44.26
81162;BME280;70638;-33.792;151.032;2024-02-23T03:28:16;99886.18;;;35.65;46.12
81162;BME280;70638;-33.792;151.032;2024-02-23T03:30:47;99885.30;;;35.70;49.09
81162;BME280;70638;-33.792;151.032;2024-02-23T03:33:17;99879.08;;;35.63;45.41
81162;BME280;70638;-33.792;151.032;2024-02-23T03:35:47;99875.31;;;35.53;45.81
81162;BME280;70638;-33.792;151.032;2024-02-23T03:38:18;99871.47;;;35.57;44.59
81162;BME280;70638;-33.792;151.032;2024-02-23T03:40:48;99864.49;;;35.47;45.45
81162;BME280;70638;-33.792;151.032;2024-02-23T03:43:18;99854.46;;;35.61;45.49
81162;BME280;70638;-33.792;151.032;2024-02-23T03:45:48;99849.16;;;35.62;44.66
81162;BME280;70638;-33.792;151.032;2024-02-23T03:48:18;99843.25;;;35.72;44.77
81162;BME280;70638;-33.792;151.032;2024-02-23T03:50:48;99839.40;;;35.72;44.06
81162;BME280;70638;-33.792;151.032;2024-02-23T03:53:19;99826.11;;;35.72;45.71
81162;BME280;70638;-33.792;151.032;2024-02-23T03:55:49;99817.64;;;35.58;44.76
81162;BME280;70638;-33.792;151.032;2024-02-23T03:58:19;99809.47;;;35.44;46.93
81162;BME280;70638;-33.792;151.032;2024-02-23T04:00:49;99810.47;;;35.47;45.09
81162;BME280;70638;-33.792;151.032;2024-02-23T04:03:19;99812.27;;;35.46;45.66
81162;BME280;70638;-33.792;151.032;2024-02-23T04:05:50;99808.90;;;35.78;44.37
81162;BME280;70638;-33.792;151.032;2024-02-23T04:08:20;99807.23;;;35.73;41.86
81162;BME280;70638;-33.792;151.032;2024-02-23T04:10:50;99804.56;;;35.99;39.32
81162;BME280;70638;-33.792;151.032;2024-02-23T04:13:20;99799.53;;;36.14;42.99
81162;BME280;70638;-33.792;151.032;2024-02-23T04:15:51;99801.75;;;36.33;43.41
81162;BME280;70638;-33.792;151.032;2024-02-23T04:18:24;99799.77;;;36.24;43.47
81162;BME280;70638;-33.792;151.032;2024-02-23T04:20:51;99789.77;;;36.19;42.79
81162;BME280;70638;-33.792;151.032;2024-02-23T04:23:28;99788.91;;;36.23;42.76
81162;BME280;70638;-33.792;151.032;2024-02-23T04:25:53;99780.11;;;36.31;43.47
81162;BME280;70638;-33.792;151.032;2024-02-23T04:28:23;99769.06;;;36.27;47.93
81162;BME280;70638;-33.792;151.032;2024-02-23T04:30:56;99763.23;;;36.24;43.06
81162;BME280;70638;-33.792;151.032;2024-02-23T04:33:23;99758.30;;;36.33;45.40
81162;BME280;70638;-33.792;151.032;2024-02-23T04:35:54;99756.20;;;36.33;41.30
81162;BME280;70638;-33.792;151.032;2024-02-23T04:38:24;99752.33;;;36.12;43.65
81162;BME280;70638;-33.792;151.032;2024-02-23T04:40:56;99749.89;;;36.09;43.47
81162;BME280;70638;-33.792;151.032;2024-02-23T04:43:25;99737.27;;;35.95;42.80
81162;BME280;70638;-33.792;151.032;2024-02-23T04:45:56;99739.93;;;35.88;42.12
81162;BME280;70638;-33.792;151.032;2024-02-23T04:48:28;99735.16;;;35.72;43.77
81162;BME280;70638;-33.792;151.032;2024-02-23T04:50:57;99730.97;;;35.70;43.47
81162;BME280;70638;-33.792;151.032;2024-02-23T04:53:27;99725.05;;;35.54;44.05
81162;BME280;70638;-33.792;151.032;2024-02-23T04:55:57;99730.69;;;35.38;44.65
81162;BME280;70638;-33.792;151.032;2024-02-23T04:58:27;99727.64;;;35.28;43.54
81162;BME280;70638;-33.792;151.032;2024-02-23T05:00:58;99720.30;;;35.39;44.55
81162;BME280;70638;-33.792;151.032;2024-02-23T05:03:29;99716.16;;;35.57;43.07
81162;BME280;70638;-33.792;151.032;2024-02-23T05:05:58;99724.09;;;35.84;41.39
81162;BME280;70638;-33.792;151.032;2024-02-23T05:08:30;99720.24;;;35.97;45.36
81162;BME280;70638;-33.792;151.032;2024-02-23T05:10:59;99719.10;;;36.06;44.54
81162;BME280;70638;-33.792;151.032;2024-02-23T05:13:30;99714.95;;;36.04;42.27
81162;BME280;70638;-33.792;151.032;2024-02-23T05:16:00;99709.78;;;35.62;40.68
81162;BME280;70638;-33.792;151.032;2024-02-23T05:18:30;99704.61;;;35.27;42.56
81162;BME280;70638;-33.792;151.032;2024-02-23T05:21:00;99703.73;;;35.07;40.66
81162;BME280;70638;-33.792;151.032;2024-02-23T05:23:31;99699.63;;;34.95;43.88
81162;BME280;70638;-33.792;151.032;2024-02-23T05:26:04;99705.01;;;34.85;44.31
81162;BME280;70638;-33.792;151.032;2024-02-23T05:28:32;99698.08;;;34.79;44.00
81162;BME280;70638;-33.792;151.032;2024-02-23T05:31:02;99699.81;;;34.75;44.92
81162;BME280;70638;-33.792;151.032;2024-02-23T05:33:33;99697.55;;;34.93;46.05
81162;BME280;70638;-33.792;151.032;2024-02-23T05:36:04;99696.03;;;35.14;43.20
81162;BME280;70638;-33.792;151.032;2024-02-23T05:38:34;99695.44;;;35.41;41.64
81162;BME280;70638;-33.792;151.032;2024-02-23T05:41:11;99700.30;;;35.33;41.00
81162;BME280;70638;-33.792;151.032;2024-02-23T05:43:37;99707.17;;;35.32;40.01
81162;BME280;70638;-33.792;151.032;2024-02-23T05:46:09;99712.88;;;35.26;40.46
81162;BME280;70638;-33.792;151.032;2024-02-23T05:48:36;99721.11;;;35.02;41.65
81162;BME280;70638;-33.792;151.032;2024-02-23T05:51:09;99721.20;;;34.77;40.27
81162;BME280;70638;-33.792;151.032;2024-02-23T05:53:41;99734.86;;;34.63;41.50
81162;BME280;70638;-33.792;151.032;2024-02-23T05:56:10;99752.27;;;34.61;39.84
81162;BME280;70638;-33.792;151.032;2024-02-23T05:58:38;99807.73;;;34.63;46.43
81162;BME280;70638;-33.792;151.032;2024-02-23T06:01:08;99830.53;;;32.43;48.93
81162;BME280;70638;-33.792;151.032;2024-02-23T06:03:38;99834.30;;;31.15;53.33
81162;BME280;70638;-33.792;151.032;2024-02-23T06:06:08;99856.19;;;30.37;56.22
81162;BME280;70638;-33.792;151.032;2024-02-23T06:08:39;99857.09;;;29.97;58.26
81162;BME280;70638;-33.792;151.032;2024-02-23T06:11:10;99865.92;;;29.46;62.04
81162;BME280;70638;-33.792;151.032;2024-02-23T06:13:44;99860.30;;;29.30;63.87
81162;BME280;70638;-33.792;151.032;2024-02-23T06:16:12;99860.36;;;28.52;67.75
81162;BME280;70638;-33.792;151.032;2024-02-23T06:18:43;99855.45;;;28.31;69.82
81162;BME280;70638;-33.792;151.032;2024-02-23T06:21:12;99866.52;;;28.10;72.40
81162;BME280;70638;-33.792;151.032;2024-02-23T06:23:42;99882.78;;;28.02;74.16
81162;BME280;70638;-33.792;151.032;2024-02-23T06:26:13;99893.67;;;27.84;76.34
81162;BME280;70638;-33.792;151.032;2024-02-23T06:28:48;99886.80;;;27.62;80.44
81162;BME280;70638;-33.792;151.032;2024-02-23T06:31:14;99890.22;;;27.33;82.95
81162;BME280;70638;-33.792;151.032;2024-02-23T06:33:53;99905.12;;;26.89;84.43
81162;BME280;70638;-33.792;151.032;2024-02-23T06:36:22;99924.62;;;26.75;85.69
81162;BME280;70638;-33.792;151.032;2024-02-23T06:38:46;99957.09;;;26.75;86.56
81162;BME280;70638;-33.792;151.032;2024-02-23T06:41:23;100000.30;;;26.61;92.58
81162;BME280;70638;-33.792;151.032;2024-02-23T06:43:55;100034.09;;;26.15;96.16
81162;BME280;70638;-33.792;151.032;2024-02-23T06:46:19;100007.91;;;25.71;100.00
81162;BME280;70638;-33.792;151.032;2024-02-23T06:48:47;100023.19;;;25.47;100.00
81162;BME280;70638;-33.792;151.032;2024-02-23T06:51:19;100014.94;;;25.39;100.00
81162;BME280;70638;-33.792;151.032;2024-02-23T06:53:49;100032.69;;;25.52;100.00
81162;BME280;70638;-33.792;151.032;2024-02-23T06:56:21;100058.76;;;25.48;100.00
81162;BME280;70638;-33.792;151.032;2024-02-23T06:58:54;100080.19;;;25.45;100.00
81162;BME280;70638;-33.792;151.032;2024-02-23T07:01:20;100081.77;;;25.36;100.00
81162;BME280;70638;-33.792;151.032;2024-02-23T07:03:57;100063.64;;;24.22;100.00
81162;BME280;70638;-33.792;151.032;2024-02-23T07:06:21;100103.61;;;23.45;100.00
81162;BME280;70638;-33.792;151.032;2024-02-23T07:08:54;100079.83;;;23.10;100.00
81162;BME280;70638;-33.792;151.032;2024-02-23T07:11:25;100075.30;;;22.93;100.00
81162;BME280;70638;-33.792;151.032;2024-02-23T07:13:53;100010.52;;;23.09;100.00
81162;BME280;70638;-33.792;151.032;2024-02-23T07:16:29;100068.83;;;22.97;100.00
81162;BME280;70638;-33.792;151.032;2024-02-23T07:19:00;100075.73;;;22.81;100.00
81162;BME280;70638;-33.792;151.032;2024-02-23T07:21:24;100077.80;;;22.81;100.00
81162;BME280;70638;-33.792;151.032;2024-02-23T07:23:54;100092.38;;;22.92;100.00
81162;BME280;70638;-33.792;151.032;2024-02-23T07:26:25;100080.69;;;22.72;100.00
81162;BME280;70638;-33.792;151.032;2024-02-23T07:28:56;100025.31;;;22.84;100.00
81162;BME280;70638;-33.792;151.032;2024-02-23T07:31:27;100004.31;;;22.91;100.00
81162;BME280;70638;-33.792;151.032;2024-02-23T07:33:57;99999.90;;;22.87;100.00
81162;BME280;70638;-33.792;151.032;2024-02-23T07:36:28;100012.02;;;22.86;100.00
81162;BME280;70638;-33.792;151.032;2024-02-23T07:38:58;100020.77;;;22.98;100.00
81162;BME280;70638;-33.792;151.032;2024-02-23T07:41:29;100002.11;;;23.05;100.00
81162;BME280;70638;-33.792;151.032;2024-02-23T07:44:00;99915.80;;;23.06;100.00
81162;BME280;70638;-33.792;151.032;2024-02-23T07:46:30;99917.46;;;23.11;100.00
81162;BME280;70638;-33.792;151.032;2024-02-23T07:49:01;99960.09;;;22.98;100.00
81162;BME280;70638;-33.792;151.032;2024-02-23T07:51:37;99980.57;;;22.96;100.00
81162;BME280;70638;-33.792;151.032;2024-02-23T07:54:02;100001.79;;;23.06;100.00
81162;BME280;70638;-33.792;151.032;2024-02-23T07:56:33;99968.86;;;23.06;100.00
81162;BME280;70638;-33.792;151.032;2024-02-23T07:59:06;99958.16;;;22.99;100.00
81162;BME280;70638;-33.792;151.032;2024-02-23T08:04:10;100044.62;;;22.90;100.00
81162;BME280;70638;-33.792;151.032;2024-02-23T08:06:35;100049.12;;;22.86;100.00
81162;BME280;70638;-33.792;151.032;2024-02-23T08:09:05;100026.89;;;22.85;100.00
81162;BME280;70638;-33.792;151.032;2024-02-23T08:11:36;100029.72;;;22.92;100.00
81162;BME280;70638;-33.792;151.032;2024-02-23T08:14:06;100043.05;;;22.84;100.00
81162;BME280;70638;-33.792;151.032;2024-02-23T08:16:39;100061.62;;;22.78;100.00
81162;BME280;70638;-33.792;151.032;2024-02-23T08:19:08;100069.30;;;22.76;100.00
81162;BME280;70638;-33.792;151.032;2024-02-23T08:21:49;100070.58;;;22.76;100.00
81162;BME280;70638;-33.792;151.032;2024-02-23T08:24:09;100071.41;;;22.82;100.00
81162;BME280;70638;-33.792;151.032;2024-02-23T08:26:44;100069.02;;;22.79;100.00
81162;BME280;70638;-33.792;151.032;2024-02-23T08:29:22;100074.90;;;22.80;100.00
81162;BME280;70638;-33.792;151.032;2024-02-23T08:31:44;100079.22;;;22.76;100.00
81162;BME280;70638;-33.792;151.032;2024-02-23T08:34:11;100085.41;;;22.74;100.00
81162;BME280;70638;-33.792;151.032;2024-02-23T08:36:44;100105.53;;;22.70;100.00
81162;BME280;70638;-33.792;151.032;2024-02-23T08:39:12;100117.64;;;22.88;100.00
81162;BME280;70638;-33.792;151.032;2024-02-23T08:41:42;100125.30;;;22.80;100.00
81162;BME280;70638;-33.792;151.032;2024-02-23T08:44:16;100139.82;;;22.79;100.00
81162;BME280;70638;-33.792;151.032;2024-02-23T08:46:42;100151.20;;;22.95;100.00
81162;BME280;70638;-33.792;151.032;2024-02-23T08:49:13;100165.83;;;22.90;100.00
81162;BME280;70638;-33.792;151.032;2024-02-23T08:51:43;100205.02;;;22.78;100.00
81162;BME280;70638;-33.792;151.032;2024-02-23T08:54:13;100217.84;;;22.78;100.00
81162;BME280;70638;-33.792;151.032;2024-02-23T08:56:45;100210.03;;;22.79;100.00
81162;BME280;70638;-33.792;151.032;2024-02-23T08:59:14;100219.70;;;22.74;100.00
81162;BME280;70638;-33.792;151.032;2024-02-23T09:01:46;100232.27;;;22.70;100.00
81162;BME280;70638;-33.792;151.032;2024-02-23T09:04:15;100249.86;;;22.61;100.00
81162;BME280;70638;-33.792;151.032;2024-02-23T09:06:45;100249.58;;;22.54;100.00
81162;BME280;70638;-33.792;151.032;2024-02-23T09:09:16;100248.84;;;22.64;100.00
81162;BME280;70638;-33.792;151.032;2024-02-23T09:11:46;100236.50;;;22.58;100.00
81162;BME280;70638;-33.792;151.032;2024-02-23T09:14:16;100239.59;;;22.53;100.00
81162;BME280;70638;-33.792;151.032;2024-02-23T09:16:49;100248.45;;;22.54;100.00
81162;BME280;70638;-33.792;151.032;2024-02-23T09:19:17;100260.75;;;22.50;100.00
81162;BME280;70638;-33.792;151.032;2024-02-23T09:21:48;100248.47;;;22.60;100.00
81162;BME280;70638;-33.792;151.032;2024-02-23T09:24:21;100250.73;;;22.52;100.00
81162;BME280;70638;-33.792;151.032;2024-02-23T09:26:48;100261.77;;;22.54;100.00
81162;BME280;70638;-33.792;151.032;2024-02-23T09:31:58;100279.83;;;22.46;100.00
81162;BME280;70638;-33.792;151.032;2024-02-23T09:34:20;100278.41;;;22.33;100.00
81162;BME280;70638;-33.792;151.032;2024-02-23T09:36:51;100279.47;;;22.38;100.00
81162;BME280;70638;-33.792;151.032;2024-02-23T09:39:23;100284.98;;;22.34;100.00
81162;BME280;70638;-33.792;151.032;2024-02-23T09:41:57;100289.95;;;22.28;100.00
81162;BME280;70638;-33.792;151.032;2024-02-23T09:44:32;100302.73;;;22.33;100.00
81162;BME280;70638;-33.792;151.032;2024-02-23T09:46:53;100321.75;;;22.39;100.00
81162;BME280;70638;-33.792;151.032;2024-02-23T09:49:24;100333.56;;;22.45;100.00
81162;BME280;70638;-33.792;151.032;2024-02-23T09:51:55;100341.45;;;22.48;100.00
81162;BME280;70638;-33.792;151.032;2024-02-23T09:54:25;100346.68;;;22.56;100.00
81162;BME280;70638;-33.792;151.032;2024-02-23T09:56:56;100355.88;;;22.56;100.00
81162;BME280;70638;-33.792;151.032;2024-02-23T09:59:30;100361.31;;;22.57;100.00
81162;BME280;70638;-33.792;151.032;2024-02-23T10:02:01;100369.78;;;22.63;100.00
81162;BME280;70638;-33.792;151.032;2024-02-23T10:06:57;100401.20;;;22.61;100.00
81162;BME280;70638;-33.792;151.032;2024-02-23T10:09:28;100411.09;;;22.60;100.00
81162;BME280;70638;-33.792;151.032;2024-02-23T10:11:58;100404.77;;;22.50;100.00
81162;BME280;70638;-33.792;151.032;2024-02-23T10:14:28;100400.36;;;22.60;100.00
81162;BME280;70638;-33.792;151.032;2024-02-23T10:17:07;100420.76;;;22.57;100.00
81162;BME280;70638;-33.792;151.032;2024-02-23T10:19:35;100437.35;;;22.59;100.00
81162;BME280;70638;-33.792;151.032;2024-02-23T10:22:05;100435.18;;;22.60;100.00
81162;BME280;70638;-33.792;151.032;2024-02-23T10:24:31;100432.39;;;22.65;100.00
81162;BME280;70638;-33.792;151.032;2024-02-23T10:27:01;100430.80;;;22.63;100.00
81162;BME280;70638;-33.792;151.032;2024-02-23T10:29:32;100423.62;;;22.62;100.00
81162;BME280;70638;-33.792;151.032;2024-02-23T10:32:05;100427.16;;;22.58;100.00
81162;BME280;70638;-33.792;151.032;2024-02-23T10:34:35;100436.38;;;22.60;100.00
81162;BME280;70638;-33.792;151.032;2024-02-23T10:37:11;100458.14;;;22.57;100.00
81162;BME280;70638;-33.792;151.032;2024-02-23T10:39:37;100466.58;;;22.61;100.00
81162;BME280;70638;-33.792;151.032;2024-02-23T10:42:09;100462.45;;;22.55;100.00
81162;BME280;70638;-33.792;151.032;2024-02-23T10:44:38;100463.12;;;22.53;100.00
81162;BME280;70638;-33.792;151.032;2024-02-23T10:47:08;100489.96;;;22.53;100.00
81162;BME280;70638;-33.792;151.032;2024-02-23T10:49:37;100492.55;;;22.58;100.00
81162;BME280;70638;-33.792;151.032;2024-02-23T10:52:09;100489.93;;;22.60;100.00
81162;BME280;70638;-33.792;151.032;2024-02-23T10:54:37;100488.63;;;22.60;100.00
81162;BME280;70638;-33.792;151.032;2024-02-23T10:57:08;100497.80;;;22.54;100.00
81162;BME280;70638;-33.792;151.032;2024-02-23T10:59:48;100495.97;;;22.55;100.00
81162;BME280;70638;-33.792;151.032;2024-02-23T11:02:09;100501.91;;;22.52;100.00
81162;BME280;70638;-33.792;151.032;2024-02-23T11:04:40;100503.55;;;22.51;100.00
81162;BME280;70638;-33.792;151.032;2024-02-23T11:07:15;100516.36;;;22.52;100.00
81162;BME280;70638;-33.792;151.032;2024-02-23T11:09:51;100531.53;;;22.49;100.00
81162;BME280;70638;-33.792;151.032;2024-02-23T11:12:23;100538.88;;;22.50;100.00
81162;BME280;70638;-33.792;151.032;2024-02-23T11:14:40;100538.75;;;22.48;100.00
81162;BME280;70638;-33.792;151.032;2024-02-23T11:17:19;100547.34;;;22.44;100.00
81162;BME280;70638;-33.792;151.032;2024-02-23T11:19:46;100539.78;;;22.45;100.00
81162;BME280;70638;-33.792;151.032;2024-02-23T11:22:25;100549.11;;;22.43;100.00
81162;BME280;70638;-33.792;151.032;2024-02-23T11:24:45;100548.11;;;22.41;100.00
81162;BME280;70638;-33.792;151.032;2024-02-23T11:27:14;100557.30;;;22.38;100.00
81162;BME280;70638;-33.792;151.032;2024-02-23T11:29:44;100545.24;;;22.33;100.00
81162;BME280;70638;-33.792;151.032;2024-02-23T11:32:17;100547.09;;;22.32;100.00
81162;BME280;70638;-33.792;151.032;2024-02-23T11:34:57;100564.09;;;22.26;100.00
81162;BME280;70638;-33.792;151.032;2024-02-23T11:37:25;100572.13;;;22.23;100.00
81162;BME280;70638;-33.792;151.032;2024-02-23T11:39:47;100570.62;;;22.22;100.00
81162;BME280;70638;-33.792;151.032;2024-02-23T11:42:18;100574.33;;;22.19;100.00
81162;BME280;70638;-33.792;151.032;2024-02-23T11:44:46;100572.77;;;22.19;100.00
81162;BME280;70638;-33.792;151.032;2024-02-23T11:47:19;100572.69;;;22.19;100.00
81162;BME280;70638;-33.792;151.032;2024-02-23T11:49:48;100574.92;;;22.19;100.00
81162;BME280;70638;-33.792;151.032;2024-02-23T11:52:19;100576.42;;;22.15;100.00
81162;BME280;70638;-33.792;151.032;2024-02-23T11:54:51;100586.36;;;22.12;100.00
81162;BME280;70638;-33.792;151.032;2024-02-23T11:57:19;100595.34;;;22.12;100.00
81162;BME280;70638;-33.792;151.032;2024-02-23T11:59:51;100610.22;;;22.13;100.00
81162;BME280;70638;-33.792;151.032;2024-02-23T12:02:38;100625.88;;;22.17;100.00
81162;BME280;70638;-33.792;151.032;2024-02-23T12:04:52;100623.36;;;22.18;100.00
81162;BME280;70638;-33.792;151.032;2024-02-23T12:07:25;100583.44;;;22.16;100.00
81162;BME280;70638;-33.792;151.032;2024-02-23T12:09:58;100600.53;;;21.88;100.00
81162;BME280;70638;-33.792;151.032;2024-02-23T12:12:23;100629.12;;;21.62;100.00
81162;BME280;70638;-33.792;151.032;2024-02-23T12:14:53;100634.12;;;21.44;100.00
81162;BME280;70638;-33.792;151.032;2024-02-23T12:17:23;100634.41;;;21.39;100.00
81162;BME280;70638;-33.792;151.032;2024-02-23T12:20:03;100639.97;;;21.39;100.00
81162;BME280;70638;-33.792;151.032;2024-02-23T12:22:25;100657.52;;;21.39;100.00
81162;BME280;70638;-33.792;151.032;2024-02-23T12:24:58;100661.88;;;21.33;100.00
81162;BME280;70638;-33.792;151.032;2024-02-23T12:27:27;100672.48;;;21.39;100.00
81162;BME280;70638;-33.792;151.032;2024-02-23T12:29:59;100675.05;;;21.32;100.00
81162;BME280;70638;-33.792;151.032;2024-02-23T12:32:27;100678.82;;;21.37;100.00
81162;BME280;70638;-33.792;151.032;2024-02-23T12:34:58;100683.03;;;21.35;100.00
81162;BME280;70638;-33.792;151.032;2024-02-23T12:37:28;100680.78;;;21.37;100.00
81162;BME280;70638;-33.792;151.032;2024-02-23T12:40:07;100662.55;;;21.29;100.00
81162;BME280;70638;-33.792;151.032;2024-02-23T12:42:29;100660.36;;;21.28;100.00